Time;durP1;ratioP1;P1;durP2;ratioP2;P2;SDS_P1;SDS_P2;PMS_P1;PMS_P2;Temp;Humidity;BMP_temperature;BMP_pressure;BME280_temperature;BME280_humidity;BME280_pressure;Samples;Min_cycle;Max_cycle;Signal;HPM_P1;HPM_P2
2023/12/14 00:02:01;;;;;;;7.95;7.55;;;6.80;99.90;;;;;;4971066;28;20047;-79
2023/12/14 00:04:26;;;;;;;6.07;5.82;;;6.90;99.90;;;;;;4962889;28;20482;-79
2023/12/14 00:06:52;;;;;;;8.15;7.65;;;6.80;99.90;;;;;;4966480;28;20027;-79
2023/12/14 00:09:18;;;;;;;6.65;6.25;;;6.90;99.90;;;;;;4947702;28;20035;-79
2023/12/14 00:11:43;;;;;;;7.90;7.50;;;6.90;99.90;;;;;;4965382;28;20023;-78
2023/12/14 00:14:09;;;;;;;8.98;8.27;;;6.90;99.90;;;;;;4963772;28;20023;-78
2023/12/14 00:16:35;;;;;;;8.25;7.82;;;6.90;99.90;;;;;;4949694;28;20054;-78
2023/12/14 00:19:01;;;;;;;9.05;8.23;;;6.90;99.90;;;;;;4961779;28;20039;-78
2023/12/14 00:21:27;;;;;;;8.95;8.45;;;6.90;99.90;;;;;;4966014;28;20038;-78
2023/12/14 00:23:52;;;;;;;8.05;7.65;;;7.00;99.90;;;;;;4962813;28;20023;-78
2023/12/14 00:26:18;;;;;;;7.20;6.80;;;7.00;99.90;;;;;;4965856;28;20394;-78
2023/12/14 00:28:43;;;;;;;7.53;7.20;;;7.00;99.90;;;;;;4963814;28;20031;-79
2023/12/14 00:31:09;;;;;;;7.80;7.50;;;7.10;99.90;;;;;;4965265;28;20019;-78
2023/12/14 00:33:35;;;;;;;7.95;7.55;;;7.10;99.90;;;;;;4964249;28;20160;-78
2023/12/14 00:36:01;;;;;;;8.38;7.97;;;7.10;99.90;;;;;;4948233;28;20024;-78
2023/12/14 00:38:27;;;;;;;6.78;6.47;;;7.10;99.90;;;;;;4969471;28;20023;-78
2023/12/14 00:40:52;;;;;;;8.13;7.80;;;7.10;99.90;;;;;;4964259;28;20067;-78
2023/12/14 00:43:18;;;;;;;7.72;7.32;;;7.10;99.90;;;;;;4973206;28;20030;-78
2023/12/14 00:45:44;;;;;;;8.65;8.15;;;7.10;99.90;;;;;;4963527;28;20097;-78
2023/12/14 00:48:09;;;;;;;6.57;6.28;;;7.10;99.90;;;;;;4947908;28;20453;-78
2023/12/14 00:50:35;;;;;;;8.23;7.47;;;7.20;99.90;;;;;;4964464;28;20481;-78
2023/12/14 00:53:01;;;;;;;6.95;6.65;;;7.10;99.90;;;;;;4955943;28;20065;-78
2023/12/14 00:55:26;;;;;;;5.85;5.55;;;7.20;99.90;;;;;;4944483;29;20126;-79
2023/12/14 00:57:52;;;;;;;6.68;6.25;;;7.20;99.90;;;;;;4969735;28;20020;-78
2023/12/14 01:00:19;;;;;;;8.45;7.75;;;7.20;99.90;;;;;;4962038;28;20037;-79
2023/12/14 01:02:44;;;;;;;8.82;8.20;;;7.20;99.90;;;;;;4967764;28;20023;-78
2023/12/14 01:05:10;;;;;;;7.30;6.80;;;7.10;99.90;;;;;;4967533;28;20035;-79
2023/12/14 01:07:36;;;;;;;5.90;5.50;;;7.10;99.90;;;;;;4972976;28;20027;-78
2023/12/14 01:10:02;;;;;;;6.43;6.13;;;7.20;99.90;;;;;;4968523;28;20054;-79
2023/12/14 01:12:28;;;;;;;6.20;5.72;;;7.10;99.90;;;;;;4961774;28;20503;-79
2023/12/14 01:14:54;;;;;;;6.72;6.22;;;7.10;99.90;;;;;;4965193;28;20099;-78
2023/12/14 01:17:19;;;;;;;7.05;6.65;;;7.20;99.90;;;;;;4965130;28;20027;-79
2023/12/14 01:19:45;;;;;;;6.90;6.50;;;7.20;99.90;;;;;;4964849;28;20024;-79
2023/12/14 01:22:11;;;;;;;8.20;7.80;;;7.20;99.90;;;;;;4962967;28;20497;-79
2023/12/14 01:24:37;;;;;;;7.32;6.95;;;7.10;99.90;;;;;;4962443;28;20633;-78
2023/12/14 01:27:03;;;;;;;5.70;5.40;;;7.20;99.90;;;;;;4961477;28;20474;-79
2023/12/14 01:29:28;;;;;;;6.00;5.70;;;7.20;99.90;;;;;;4964098;28;20031;-78
2023/12/14 01:31:54;;;;;;;6.10;5.80;;;7.20;99.90;;;;;;4963779;28;20023;-79
2023/12/14 01:34:19;;;;;;;7.15;6.75;;;7.20;99.90;;;;;;4961570;28;20054;-78
2023/12/14 01:36:45;;;;;;;5.70;5.40;;;7.20;99.90;;;;;;4963962;28;20109;-78
2023/12/14 01:39:11;;;;;;;7.18;6.50;;;7.20;99.90;;;;;;4964827;28;20023;-78
2023/12/14 01:41:36;;;;;;;5.85;5.32;;;7.20;99.90;;;;;;4969417;28;20077;-78
2023/12/14 01:44:02;;;;;;;4.82;4.63;;;7.30;99.90;;;;;;4953130;28;20027;-78
2023/12/14 01:46:28;;;;;;;6.80;6.45;;;7.30;99.90;;;;;;4967222;28;20489;-79
2023/12/14 01:48:54;;;;;;;6.32;5.90;;;7.30;99.90;;;;;;4968225;28;20027;-79
2023/12/14 01:51:19;;;;;;;6.07;5.68;;;7.30;99.90;;;;;;4947129;28;20023;-79
2023/12/14 01:53:45;;;;;;;6.70;6.40;;;7.20;99.90;;;;;;4954960;28;20041;-78
2023/12/14 01:56:11;;;;;;;6.10;5.78;;;7.30;99.90;;;;;;4964449;28;20027;-78
2023/12/14 01:58:37;;;;;;;5.82;5.57;;;7.30;99.90;;;;;;4963029;28;20456;-78
2023/12/14 02:01:22;;;;;;;5.40;5.20;;;7.30;99.90;;;;;;4966137;28;20027;-78
2023/12/14 02:03:50;;;;;;;6.82;6.53;;;7.30;99.90;;;;;;4961492;28;20028;-78
2023/12/14 02:06:16;;;;;;;6.72;6.43;;;7.30;99.90;;;;;;4963389;28;20018;-79
2023/12/14 02:08:42;;;;;;;6.32;5.88;;;7.30;99.90;;;;;;4962195;28;20030;-78
2023/12/14 02:11:08;;;;;;;7.00;6.60;;;7.30;99.90;;;;;;4964033;28;20035;-79
2023/12/14 02:13:34;;;;;;;7.25;6.85;;;7.30;99.90;;;;;;4963290;28;20023;-78
2023/12/14 02:15:59;;;;;;;7.97;7.45;;;7.30;99.90;;;;;;4961755;28;20501;-78
2023/12/14 02:18:25;;;;;;;7.25;6.88;;;7.20;99.90;;;;;;4964164;28;20283;-79
2023/12/14 02:20:51;;;;;;;7.80;7.40;;;7.20;99.90;;;;;;4960841;28;20035;-78
2023/12/14 02:23:17;;;;;;;8.15;7.55;;;7.20;99.90;;;;;;4961361;28;20102;-78
2023/12/14 02:25:42;;;;;;;8.00;7.45;;;7.20;99.90;;;;;;4961192;28;20030;-78
2023/12/14 02:28:08;;;;;;;8.13;7.43;;;7.20;99.90;;;;;;4949888;28;20027;-79
2023/12/14 02:30:34;;;;;;;8.38;7.97;;;7.20;99.90;;;;;;4943570;29;20478;-79
2023/12/14 02:33:00;;;;;;;7.28;6.88;;;7.10;99.90;;;;;;4968718;28;20047;-79
2023/12/14 02:35:25;;;;;;;7.32;7.03;;;7.10;99.90;;;;;;4961614;28;20102;-79
2023/12/14 02:37:51;;;;;;;7.57;7.07;;;7.10;99.90;;;;;;4971664;28;20477;-78
2023/12/14 02:40:17;;;;;;;6.85;6.45;;;7.00;99.90;;;;;;4950362;28;20378;-79
2023/12/14 02:42:42;;;;;;;7.53;7.13;;;7.10;99.90;;;;;;4954619;28;20037;-78
2023/12/14 02:45:09;;;;;;;7.55;7.15;;;7.00;99.90;;;;;;4968808;28;20034;-79
2023/12/14 02:47:35;;;;;;;8.43;7.93;;;7.00;99.90;;;;;;4965639;28;20110;-79
2023/12/14 02:50:00;;;;;;;8.95;8.45;;;7.00;99.90;;;;;;4966475;28;20105;-79
2023/12/14 02:52:26;;;;;;;8.15;7.65;;;7.00;99.90;;;;;;4964822;28;20027;-79
2023/12/14 02:54:52;;;;;;;10.10;9.30;;;7.00;99.90;;;;;;4971557;28;20065;-78
2023/12/14 02:57:17;;;;;;;8.55;8.13;;;7.00;99.90;;;;;;4950117;28;20391;-79
2023/12/14 02:59:43;;;;;;;8.52;7.82;;;7.00;99.90;;;;;;4968717;28;20030;-79
2023/12/14 03:02:09;;;;;;;8.77;8.27;;;7.00;99.90;;;;;;4967441;28;20030;-78
2023/12/14 03:04:38;;;;;;;10.63;9.75;;;7.00;99.90;;;;;;4967181;28;20505;-79
2023/12/14 03:07:04;;;;;;;10.85;10.23;;;6.90;99.90;;;;;;4970895;28;20023;-79
2023/12/14 03:09:29;;;;;;;9.18;8.43;;;6.90;99.90;;;;;;4970078;28;20050;-78
2023/12/14 03:11:56;;;;;;;11.43;10.10;;;6.80;99.90;;;;;;4967542;28;20031;-78
2023/12/14 03:14:22;;;;;;;8.93;8.43;;;6.70;99.90;;;;;;4967855;28;20034;-78
2023/12/14 03:16:48;;;;;;;9.43;8.77;;;6.70;99.90;;;;;;4970958;28;20490;-79
2023/12/14 03:19:15;;;;;;;9.27;8.52;;;6.70;99.90;;;;;;4945792;28;20035;-78
2023/12/14 03:21:40;;;;;;;9.95;9.35;;;6.60;99.90;;;;;;4966960;28;20363;-79
2023/12/14 03:24:06;;;;;;;9.00;8.50;;;6.70;99.90;;;;;;4964887;28;20037;-78
2023/12/14 03:26:32;;;;;;;9.65;9.00;;;6.60;99.90;;;;;;4967676;28;20114;-78
2023/12/14 03:28:57;;;;;;;9.93;9.23;;;6.60;99.90;;;;;;4966691;28;20363;-79
2023/12/14 03:31:23;;;;;;;11.43;10.73;;;6.60;99.90;;;;;;4964413;28;20027;-78
2023/12/14 03:33:49;;;;;;;10.05;9.45;;;6.50;99.90;;;;;;4952875;28;20065;-78
2023/12/14 03:36:14;;;;;;;10.82;10.02;;;6.50;99.90;;;;;;4966805;28;20172;-79
2023/12/14 03:38:40;;;;;;;10.82;9.98;;;6.50;99.90;;;;;;4956172;28;20224;-79
2023/12/14 03:41:06;;;;;;;11.88;10.98;;;6.50;99.90;;;;;;4958485;28;20082;-78
2023/12/14 03:43:31;;;;;;;11.30;10.52;;;6.50;99.90;;;;;;4969023;28;20034;-78
2023/12/14 03:45:57;;;;;;;13.30;12.30;;;6.50;99.90;;;;;;4963926;28;20030;-79
2023/12/14 03:48:23;;;;;;;10.52;9.82;;;6.60;99.90;;;;;;4969081;28;20030;-79
2023/12/14 03:50:48;;;;;;;12.85;11.95;;;6.60;99.90;;;;;;4957245;28;20034;-79
2023/12/14 03:53:14;;;;;;;10.45;9.55;;;6.60;99.90;;;;;;4970111;28;20065;-79
2023/12/14 03:55:39;;;;;;;13.95;10.90;;;6.60;99.90;;;;;;4963663;28;20031;-78
2023/12/14 03:58:05;;;;;;;12.10;11.10;;;6.60;99.90;;;;;;4968447;28;20030;-78
2023/12/14 04:00:31;;;;;;;12.52;11.63;;;6.50;99.90;;;;;;4967155;28;20109;-79
2023/12/14 04:02:56;;;;;;;12.40;11.43;;;6.50;99.90;;;;;;4950237;28;20027;-78
2023/12/14 04:05:22;;;;;;;12.25;11.30;;;6.50;99.90;;;;;;4956387;28;20117;-78
2023/12/14 04:07:48;;;;;;;12.45;11.55;;;6.50;99.90;;;;;;4966363;28;20101;-78
2023/12/14 04:10:13;;;;;;;12.18;11.27;;;6.50;99.90;;;;;;4945455;29;20038;-78
2023/12/14 04:12:40;;;;;;;11.55;10.68;;;6.50;99.90;;;;;;4951406;28;20027;-79
2023/12/14 04:15:07;;;;;;;12.75;11.75;;;6.50;99.90;;;;;;4963736;28;20081;-79
2023/12/14 04:17:33;;;;;;;12.90;11.90;;;6.50;99.90;;;;;;4968735;28;20094;-78
2023/12/14 04:19:59;;;;;;;12.82;11.82;;;6.50;99.90;;;;;;4965939;28;20031;-79
2023/12/14 04:22:25;;;;;;;13.93;11.32;;;6.50;99.90;;;;;;4953547;28;20402;-78
2023/12/14 04:24:51;;;;;;;11.55;10.75;;;6.50;99.90;;;;;;4965450;28;20041;-78
2023/12/14 04:27:17;;;;;;;11.68;10.77;;;6.50;99.90;;;;;;4966207;28;20035;-78
2023/12/14 04:29:43;;;;;;;13.80;12.88;;;6.60;99.90;;;;;;4962476;28;20027;-78
2023/12/14 04:32:09;;;;;;;11.65;10.80;;;6.60;99.90;;;;;;4972991;28;20019;-79
2023/12/14 04:34:34;;;;;;;12.93;11.82;;;6.60;99.90;;;;;;4968099;28;20530;-78
2023/12/14 04:37:00;;;;;;;12.68;11.80;;;6.60;99.90;;;;;;4955048;28;20175;-79
2023/12/14 04:39:26;;;;;;;12.30;11.35;;;6.60;99.90;;;;;;4964488;28;20030;-78
2023/12/14 04:41:53;;;;;;;12.75;11.80;;;6.50;99.90;;;;;;4965787;28;20038;-79
2023/12/14 04:44:19;;;;;;;12.48;11.63;;;6.50;99.90;;;;;;4965374;28;20076;-79
2023/12/14 04:46:44;;;;;;;12.20;11.20;;;6.50;99.90;;;;;;4956011;28;20285;-79
2023/12/14 04:49:10;;;;;;;11.75;10.95;;;6.50;99.90;;;;;;4944809;28;20067;-79
2023/12/14 04:51:36;;;;;;;12.77;11.75;;;6.50;99.90;;;;;;4950919;28;20078;-78
2023/12/14 04:54:02;;;;;;;12.35;11.55;;;6.50;99.90;;;;;;4967758;28;20038;-78
2023/12/14 04:56:28;;;;;;;12.75;11.85;;;6.40;99.90;;;;;;4950298;28;20027;-79
2023/12/14 04:58:54;;;;;;;12.18;11.13;;;6.40;99.90;;;;;;4969844;28;20039;-78
2023/12/14 05:01:19;;;;;;;11.65;10.85;;;6.40;99.90;;;;;;4964678;28;20034;-78
2023/12/14 05:03:45;;;;;;;14.23;13.15;;;6.40;99.90;;;;;;4950805;28;20114;-78
2023/12/14 05:06:11;;;;;;;13.27;12.27;;;6.40;99.90;;;;;;4960734;28;20063;-78
2023/12/14 05:08:37;;;;;;;12.48;11.48;;;6.30;99.90;;;;;;4965274;28;20409;-78
2023/12/14 05:11:03;;;;;;;14.15;13.05;;;6.30;99.90;;;;;;4960380;28;20484;-78
2023/12/14 05:13:29;;;;;;;14.80;13.65;;;6.30;99.90;;;;;;4949744;28;20078;-78
2023/12/14 05:15:55;;;;;;;14.73;13.63;;;6.30;99.90;;;;;;4962271;28;20034;-78
2023/12/14 05:18:20;;;;;;;15.30;14.20;;;6.30;99.90;;;;;;4968130;28;20118;-78
2023/12/14 05:20:46;;;;;;;14.65;13.55;;;6.30;99.90;;;;;;4961876;28;20031;-78
2023/12/14 05:23:12;;;;;;;16.00;14.50;;;6.30;99.90;;;;;;4965203;28;20038;-78
2023/12/14 05:25:38;;;;;;;15.10;13.95;;;6.30;99.90;;;;;;4964665;28;20037;-78
2023/12/14 05:28:04;;;;;;;13.82;12.73;;;6.30;99.90;;;;;;4953269;28;20034;-78
2023/12/14 05:30:30;;;;;;;15.75;14.35;;;6.20;99.90;;;;;;4945684;28;20066;-78
2023/12/14 05:32:56;;;;;;;15.07;13.75;;;6.20;99.90;;;;;;4950004;28;20060;-79
2023/12/14 05:35:21;;;;;;;15.77;14.27;;;6.20;99.90;;;;;;4962436;28;20035;-78
2023/12/14 05:37:47;;;;;;;15.15;13.95;;;6.10;99.90;;;;;;4968151;28;20472;-78
2023/12/14 05:40:13;;;;;;;16.77;14.98;;;6.10;99.90;;;;;;4957200;28;20029;-78
2023/12/14 05:42:39;;;;;;;16.38;15.07;;;6.20;99.90;;;;;;4964290;28;20031;-78
2023/12/14 05:45:06;;;;;;;15.18;13.93;;;6.20;99.90;;;;;;4944607;28;20091;-78
2023/12/14 05:47:34;;;;;;;16.88;15.48;;;6.20;99.90;;;;;;4966610;28;20031;-78
2023/12/14 05:50:00;;;;;;;15.60;14.40;;;6.20;99.90;;;;;;4964719;28;20401;-78
2023/12/14 05:52:26;;;;;;;17.20;15.85;;;6.30;99.90;;;;;;4969641;28;20018;-78
2023/12/14 05:54:51;;;;;;;15.50;14.23;;;6.20;99.90;;;;;;4963506;28;20448;-78
2023/12/14 05:57:17;;;;;;;16.10;14.82;;;6.20;99.90;;;;;;4965610;28;20027;-78
2023/12/14 05:59:43;;;;;;;17.33;15.93;;;6.20;99.90;;;;;;4965896;28;20027;-78
2023/12/14 06:02:09;;;;;;;13.27;12.15;;;6.20;99.90;;;;;;4965055;28;20027;-78
2023/12/14 06:04:34;;;;;;;17.27;15.85;;;6.20;99.90;;;;;;4955072;28;20023;-79
2023/12/14 06:07:00;;;;;;;15.73;14.43;;;6.20;99.90;;;;;;4968076;28;20392;-78
2023/12/14 06:09:34;;;;;;;15.07;13.77;;;6.20;99.90;;;;;;4966902;28;20026;-78
2023/12/14 06:12:03;;;;;;;16.73;15.43;;;6.10;99.90;;;;;;4970739;28;20034;-78
2023/12/14 06:14:29;;;;;;;16.33;15.02;;;6.20;99.90;;;;;;4972430;28;20019;-78
2023/12/14 06:16:55;;;;;;;16.63;15.32;;;6.20;99.90;;;;;;4958871;28;20023;-79
2023/12/14 06:19:21;;;;;;;15.70;14.40;;;6.20;99.90;;;;;;4954935;28;20421;-78
2023/12/14 06:21:48;;;;;;;14.43;13.27;;;6.20;99.90;;;;;;4967955;28;20110;-79
2023/12/14 06:24:13;;;;;;;16.38;15.18;;;6.10;99.90;;;;;;4971915;28;20023;-79
2023/12/14 06:26:45;;;;;;;15.63;14.02;;;6.10;99.90;;;;;;4970544;28;20045;-79
2023/12/14 06:29:12;;;;;;;15.43;14.20;;;6.10;99.90;;;;;;4950536;28;20037;-78
2023/12/14 06:31:38;;;;;;;16.02;14.48;;;6.10;99.90;;;;;;4939237;29;20098;-79
2023/12/14 06:34:05;;;;;;;17.08;15.35;;;6.10;99.90;;;;;;4946079;29;20502;-78
2023/12/14 06:36:31;;;;;;;16.92;15.45;;;6.10;99.90;;;;;;4959097;28;20023;-78
2023/12/14 06:39:00;;;;;;;15.18;14.00;;;6.20;99.90;;;;;;4967062;28;20106;-79
2023/12/14 06:41:26;;;;;;;16.98;15.60;;;6.20;99.90;;;;;;4958173;28;20027;-78
2023/12/14 06:43:53;;;;;;;17.33;15.52;;;6.20;99.90;;;;;;4946271;28;20516;-78
2023/12/14 06:46:19;;;;;;;15.15;13.75;;;6.20;99.90;;;;;;4967753;28;20031;-79
2023/12/14 06:48:45;;;;;;;15.85;14.35;;;6.20;99.90;;;;;;4953233;28;20037;-79
2023/12/14 06:51:11;;;;;;;15.82;14.52;;;6.20;99.90;;;;;;4964983;28;20054;-78
2023/12/14 06:53:40;;;;;;;14.98;13.57;;;6.20;99.90;;;;;;4963779;28;20029;-79
2023/12/14 06:56:09;;;;;;;17.52;15.95;;;6.20;99.90;;;;;;4967202;28;20018;-78
2023/12/14 06:58:35;;;;;;;19.58;17.67;;;6.20;99.90;;;;;;4963513;28;20023;-78
2023/12/14 07:01:01;;;;;;;18.52;16.73;;;6.20;99.90;;;;;;4968981;28;20031;-79
2023/12/14 07:03:26;;;;;;;125.82;27.98;;;6.20;99.90;;;;;;4969427;28;20081;-78
2023/12/14 07:05:52;;;;;;;120.43;30.15;;;6.30;99.90;;;;;;4963374;28;20089;-78
2023/12/14 07:08:18;;;;;;;81.47;23.92;;;6.30;99.90;;;;;;4968337;28;20034;-78
2023/12/14 07:10:43;;;;;;;38.05;15.27;;;6.30;99.90;;;;;;4950520;28;20022;-78
2023/12/14 07:13:09;;;;;;;52.15;17.02;;;6.30;99.90;;;;;;4954899;28;20497;-79
2023/12/14 07:15:35;;;;;;;24.67;14.60;;;6.30;99.90;;;;;;4967308;28;20058;-78
2023/12/14 07:18:00;;;;;;;13.70;12.45;;;6.30;99.90;;;;;;4958143;28;20118;-78
2023/12/14 07:20:27;;;;;;;12.27;11.27;;;6.20;99.90;;;;;;4963087;28;20038;-78
2023/12/14 07:22:53;;;;;;;13.07;12.07;;;6.20;99.90;;;;;;4956180;28;20027;-78
2023/12/14 07:25:18;;;;;;;13.68;12.52;;;6.20;99.90;;;;;;4965171;28;20058;-78
2023/12/14 07:27:46;;;;;;;13.80;12.65;;;6.20;99.90;;;;;;4968007;28;20054;-78
2023/12/14 07:30:12;;;;;;;11.10;10.25;;;6.30;99.90;;;;;;4963528;28;20023;-78
2023/12/14 07:32:38;;;;;;;12.20;11.18;;;6.30;99.90;;;;;;4966909;28;20031;-78
2023/12/14 07:35:05;;;;;;;13.32;11.50;;;6.30;99.90;;;;;;4957490;28;20370;-78
2023/12/14 07:37:30;;;;;;;17.38;11.52;;;6.30;99.90;;;;;;4955237;28;20401;-79
2023/12/14 07:39:57;;;;;;;10.75;9.85;;;6.20;99.90;;;;;;4966231;28;20023;-79
2023/12/14 07:42:24;;;;;;;12.23;11.30;;;6.20;99.90;;;;;;4967408;28;20500;-79
2023/12/14 07:44:50;;;;;;;10.52;9.60;;;6.10;99.90;;;;;;4949343;28;20031;-78
2023/12/14 07:47:16;;;;;;;11.75;10.65;;;6.10;99.90;;;;;;4950769;28;20397;-79
2023/12/14 07:49:42;;;;;;;11.13;10.40;;;6.10;99.90;;;;;;4962365;28;20429;-78
2023/12/14 07:52:07;;;;;;;8.80;8.15;;;6.10;99.90;;;;;;4967413;28;20090;-78
2023/12/14 07:54:33;;;;;;;9.80;9.10;;;6.10;99.90;;;;;;4966413;28;20030;-79
2023/12/14 07:56:59;;;;;;;10.63;9.82;;;6.20;99.90;;;;;;4965130;28;20035;-78
2023/12/14 07:59:24;;;;;;;10.68;9.90;;;6.20;99.90;;;;;;4965139;28;20027;-78
2023/12/14 08:01:50;;;;;;;8.60;8.00;;;6.30;99.90;;;;;;4966057;28;20029;-79
2023/12/14 08:04:16;;;;;;;10.65;9.95;;;6.30;99.90;;;;;;4955138;28;20035;-79
2023/12/14 08:06:42;;;;;;;9.15;8.55;;;6.30;99.90;;;;;;4950049;28;20030;-79
2023/12/14 08:09:08;;;;;;;11.25;10.35;;;6.40;99.90;;;;;;4956236;28;20445;-79
2023/12/14 08:11:34;;;;;;;14.75;13.65;;;6.40;99.90;;;;;;4956603;28;20023;-79
2023/12/14 08:14:00;;;;;;;15.60;14.18;;;6.40;99.90;;;;;;4956344;28;20390;-79
2023/12/14 08:16:25;;;;;;;13.45;12.45;;;6.40;99.90;;;;;;4965897;28;20019;-78
2023/12/14 08:18:51;;;;;;;17.23;15.80;;;6.40;99.90;;;;;;4946458;28;20038;-79
2023/12/14 08:21:18;;;;;;;14.20;13.15;;;6.40;99.90;;;;;;4965811;28;20537;-79
2023/12/14 08:23:44;;;;;;;12.57;11.48;;;6.50;99.90;;;;;;4965668;28;20031;-79
2023/12/14 08:26:12;;;;;;;14.93;13.68;;;6.50;99.90;;;;;;4965539;28;20182;-78
2023/12/14 08:28:38;;;;;;;13.80;12.70;;;6.50;99.90;;;;;;4965158;28;20029;-79
2023/12/14 08:31:04;;;;;;;12.20;11.27;;;6.60;99.90;;;;;;4963774;28;20466;-78
2023/12/14 08:33:30;;;;;;;14.93;13.73;;;6.60;99.90;;;;;;4958075;28;20053;-79
2023/12/14 08:35:56;;;;;;;13.73;12.70;;;6.60;99.90;;;;;;4963883;28;20024;-79
2023/12/14 08:38:22;;;;;;;14.93;13.63;;;6.60;99.90;;;;;;4954211;28;20117;-79
2023/12/14 08:40:48;;;;;;;16.90;15.45;;;6.60;99.90;;;;;;4966557;28;20114;-79
2023/12/14 08:43:14;;;;;;;17.00;15.52;;;6.60;99.90;;;;;;4952206;28;20030;-78
2023/12/14 08:45:40;;;;;;;16.80;15.20;;;6.60;99.90;;;;;;4964973;28;20374;-78
2023/12/14 08:48:06;;;;;;;15.65;14.23;;;6.60;99.90;;;;;;4948912;28;20114;-79
2023/12/14 08:50:32;;;;;;;16.98;15.60;;;6.60;99.90;;;;;;4945188;29;20119;-79
2023/12/14 08:52:59;;;;;;;15.85;14.65;;;6.60;99.90;;;;;;4965868;28;20108;-78
2023/12/14 08:55:25;;;;;;;16.80;15.20;;;6.60;99.90;;;;;;4964680;28;20023;-79
2023/12/14 08:57:50;;;;;;;16.33;14.93;;;6.60;99.90;;;;;;4966410;28;20023;-79
2023/12/14 09:00:17;;;;;;;17.15;15.65;;;6.60;99.90;;;;;;4945216;28;20504;-79
2023/12/14 09:02:46;;;;;;;21.42;19.55;;;6.70;99.90;;;;;;4967852;28;20023;-78
2023/12/14 09:05:13;;;;;;;18.90;17.10;;;6.60;99.90;;;;;;4964096;28;20031;-78
2023/12/14 09:07:39;;;;;;;18.33;16.63;;;6.70;99.90;;;;;;4965553;28;20019;-78
2023/12/14 09:10:06;;;;;;;19.05;17.38;;;6.60;99.90;;;;;;4964172;28;20612;-79
2023/12/14 09:12:33;;;;;;;20.08;18.20;;;6.70;99.90;;;;;;4948923;28;20385;-78
2023/12/14 09:14:59;;;;;;;20.45;18.55;;;6.70;99.90;;;;;;4962467;28;20023;-78
2023/12/14 09:17:24;;;;;;;21.80;19.95;;;6.70;99.90;;;;;;4966133;28;20066;-79
2023/12/14 09:19:50;;;;;;;19.13;17.48;;;6.80;99.90;;;;;;4945482;28;20018;-79
2023/12/14 09:22:16;;;;;;;18.88;17.27;;;6.80;99.90;;;;;;4964556;28;20478;-79
2023/12/14 09:24:41;;;;;;;20.80;19.00;;;6.80;99.90;;;;;;4965127;28;20055;-78
2023/12/14 09:27:07;;;;;;;20.08;18.45;;;6.80;99.90;;;;;;4964499;28;20023;-78
2023/12/14 09:29:32;;;;;;;19.83;18.13;;;6.80;99.90;;;;;;4960972;28;20473;-79
2023/12/14 09:31:58;;;;;;;16.15;14.73;;;6.80;99.90;;;;;;4962456;28;20481;-79
2023/12/14 09:34:24;;;;;;;20.85;19.13;;;6.90;99.90;;;;;;4964808;28;20069;-79
2023/12/14 09:36:49;;;;;;;22.25;20.23;;;6.90;99.90;;;;;;4946779;28;20486;-79
2023/12/14 09:39:15;;;;;;;22.65;20.75;;;6.90;99.90;;;;;;4965423;28;20114;-79
2023/12/14 09:41:41;;;;;;;22.42;20.52;;;7.00;99.90;;;;;;4968371;28;20033;-78
2023/12/14 09:44:07;;;;;;;21.85;19.83;;;7.00;99.90;;;;;;4970562;28;20034;-78
2023/12/14 09:46:36;;;;;;;19.17;17.38;;;7.00;99.90;;;;;;4966551;28;20026;-78
2023/12/14 09:49:04;;;;;;;21.40;19.50;;;7.00;99.90;;;;;;4947975;28;20382;-78
2023/12/14 09:51:30;;;;;;;25.52;23.02;;;6.90;99.90;;;;;;4959047;28;20035;-78
2023/12/14 09:53:58;;;;;;;23.05;20.95;;;6.90;99.90;;;;;;4952001;29;20461;-78
2023/12/14 09:56:27;;;;;;;23.25;21.17;;;6.90;99.90;;;;;;4970687;28;20069;-79
2023/12/14 09:58:53;;;;;;;23.10;21.08;;;7.00;99.90;;;;;;4965941;28;20069;-79
2023/12/14 10:01:26;;;;;;;23.77;21.67;;;7.10;99.90;;;;;;4953103;28;20023;-79
2023/12/14 10:04:12;;;;;;;21.73;19.77;;;7.10;99.90;;;;;;4965145;28;20075;-78
2023/12/14 10:06:42;;;;;;;20.63;18.85;;;7.10;99.90;;;;;;4971555;28;20053;-78
2023/12/14 10:09:14;;;;;;;22.30;20.10;;;7.10;99.90;;;;;;4966755;28;20469;-79
2023/12/14 10:11:40;;;;;;;;;;;7.20;99.90;;;;;;4971222;28;20521;-78
2023/12/14 10:14:20;;;;;;;18.48;16.88;;;7.20;99.90;;;;;;4966402;28;19989;-79
2023/12/14 10:16:47;;;;;;;20.70;18.63;;;7.30;99.90;;;;;;4967002;28;20018;-78
2023/12/14 10:19:13;;;;;;;21.45;19.48;;;7.40;99.90;;;;;;4964715;28;20065;-79
2023/12/14 10:21:39;;;;;;;22.77;20.77;;;7.50;99.90;;;;;;4968604;28;20436;-78
2023/12/14 10:24:06;;;;;;;22.95;20.85;;;7.60;99.90;;;;;;4960768;28;20027;-78
2023/12/14 10:26:31;;;;;;;22.52;20.52;;;7.60;99.90;;;;;;4968559;28;20034;-78
2023/12/14 10:28:57;;;;;;;29.95;26.83;;;7.60;99.90;;;;;;4964545;28;20032;-78
2023/12/14 10:31:25;;;;;;;26.05;23.55;;;7.60;99.90;;;;;;4967420;28;20057;-78
2023/12/14 10:33:52;;;;;;;23.70;21.50;;;7.60;99.90;;;;;;4964753;28;20101;-78
2023/12/14 10:36:25;;;;;;;23.73;21.58;;;7.70;99.90;;;;;;4952611;28;20486;-78
2023/12/14 10:38:57;;;;;;;25.15;22.85;;;7.60;99.90;;;;;;4968240;28;20031;-78
2023/12/14 10:41:24;;;;;;;22.23;20.23;;;7.60;99.90;;;;;;4970336;28;20031;-78
2023/12/14 10:43:52;;;;;;;23.23;21.13;;;7.70;99.90;;;;;;4947480;28;20035;-78
2023/12/14 10:46:19;;;;;;;21.90;19.90;;;7.70;99.90;;;;;;4970784;28;20385;-78
2023/12/14 10:48:47;;;;;;;23.02;20.88;;;7.70;99.90;;;;;;4971349;28;20027;-78
2023/12/14 10:51:14;;;;;;;22.42;20.50;;;7.80;99.90;;;;;;4968358;28;20019;-78
2023/12/14 10:53:44;;;;;;;23.23;21.13;;;7.90;99.90;;;;;;4967446;28;20031;-78
2023/12/14 10:56:11;;;;;;;20.95;19.13;;;7.90;99.90;;;;;;4957305;28;20252;-79
2023/12/14 10:58:53;;;;;;;20.70;18.58;;;8.00;99.90;;;;;;4963404;28;20027;-78
2023/12/14 11:01:20;;;;;;;22.05;20.15;;;8.10;99.90;;;;;;4969241;28;20061;-78
2023/12/14 11:03:47;;;;;;;19.95;18.17;;;8.10;99.90;;;;;;4968070;28;20054;-78
2023/12/14 11:06:42;;;;;;;22.60;20.50;;;8.20;99.90;;;;;;4967188;28;20041;-78
2023/12/14 11:09:10;;;;;;;20.83;18.92;;;8.20;99.90;;;;;;4950143;28;20343;-78
2023/12/14 11:11:58;;;;;;;19.98;18.17;;;8.30;99.90;;;;;;4967932;28;20065;-79
2023/12/14 11:14:25;;;;;;;21.33;19.13;;;8.30;99.90;;;;;;4967671;28;20023;-79
2023/12/14 11:16:55;;;;;;;20.60;18.70;;;8.40;99.90;;;;;;4967388;28;20057;-78
2023/12/14 11:19:24;;;;;;;22.88;20.48;;;8.40;99.90;;;;;;4971337;28;20036;-78
2023/12/14 11:22:05;;;;;;;25.75;23.17;;;8.60;99.90;;;;;;4956882;28;20490;-79
2023/12/14 11:24:30;;;;;;;22.10;19.92;;;8.60;99.90;;;;;;4968127;28;20119;-78
2023/12/14 11:26:56;;;;;;;24.25;21.92;;;8.60;99.90;;;;;;4970658;28;20110;-78
2023/12/14 11:29:23;;;;;;;24.90;22.50;;;8.70;99.90;;;;;;4967250;28;20086;-78
2023/12/14 11:31:48;;;;;;;24.65;22.10;;;8.70;99.90;;;;;;4950369;28;20371;-78
2023/12/14 11:34:17;;;;;;;26.55;23.90;;;8.70;99.90;;;;;;4967633;28;20138;-79
2023/12/14 11:36:45;;;;;;;24.77;22.48;;;8.80;99.90;;;;;;4967204;28;20042;-78
2023/12/14 11:39:11;;;;;;;24.83;20.95;;;8.80;99.90;;;;;;4962948;28;20110;-78
2023/12/14 11:41:38;;;;;;;24.92;22.63;;;8.90;99.90;;;;;;4951115;28;20114;-78
2023/12/14 11:44:04;;;;;;;25.85;23.33;;;8.90;99.90;;;;;;4948036;28;20481;-78
2023/12/14 11:46:30;;;;;;;23.20;21.02;;;9.00;99.90;;;;;;4950390;28;20034;-78
2023/12/14 11:49:03;;;;;;;22.08;19.98;;;9.00;99.90;;;;;;4966461;28;20031;-78
2023/12/14 11:51:30;;;;;;;20.92;18.83;;;9.00;99.90;;;;;;4946019;28;20034;-78
2023/12/14 11:53:55;;;;;;;22.65;17.65;;;9.00;99.90;;;;;;4971519;28;20044;-78
2023/12/14 11:56:23;;;;;;;18.02;16.15;;;9.00;99.90;;;;;;4966278;28;20089;-79
2023/12/14 11:58:49;;;;;;;19.77;17.98;;;9.00;99.90;;;;;;4945043;28;20058;-78
2023/12/14 12:01:19;;;;;;;17.95;16.40;;;9.10;99.90;;;;;;4964383;28;20026;-78
2023/12/14 12:03:45;;;;;;;19.83;17.80;;;9.10;99.90;;;;;;4970238;28;20031;-78
2023/12/14 12:06:22;;;;;;;17.73;15.93;;;9.10;99.90;;;;;;4966139;28;20035;-78
2023/12/14 12:08:48;;;;;;;18.60;16.70;;;9.10;99.90;;;;;;4968798;28;20038;-78
2023/12/14 12:11:22;;;;;;;19.38;17.48;;;9.10;99.90;;;;;;4963288;28;20031;-78
2023/12/14 12:13:52;;;;;;;19.67;17.65;;;9.10;99.90;;;;;;4952283;28;20509;-78
2023/12/14 12:16:18;;;;;;;21.25;19.20;;;9.10;99.90;;;;;;4966019;28;20075;-79
2023/12/14 12:18:43;;;;;;;22.35;20.38;;;9.10;99.90;;;;;;4965538;28;20493;-78
2023/12/14 12:21:11;;;;;;;24.60;21.90;;;9.10;99.90;;;;;;4965559;28;20037;-78
2023/12/14 12:23:37;;;;;;;23.83;21.50;;;9.10;99.90;;;;;;4968090;28;20030;-78
2023/12/14 12:26:03;;;;;;;23.17;20.83;;;9.10;99.90;;;;;;4963858;28;20031;-78
2023/12/14 12:28:30;;;;;;;24.88;22.45;;;9.10;99.90;;;;;;4968601;28;20062;-78
2023/12/14 12:30:56;;;;;;;25.35;22.77;;;9.10;99.90;;;;;;4967140;28;20019;-78
2023/12/14 12:33:22;;;;;;;33.22;26.50;;;9.10;99.90;;;;;;4947143;28;20066;-78
2023/12/14 12:35:47;;;;;;;24.90;22.27;;;9.10;99.90;;;;;;4948458;28;20022;-79
2023/12/14 12:38:14;;;;;;;28.25;24.85;;;9.20;99.90;;;;;;4970213;28;20413;-78
2023/12/14 12:40:39;;;;;;;27.52;24.85;;;9.20;99.90;;;;;;4961854;28;20027;-78